Time;durP1;ratioP1;P1;durP2;ratioP2;P2;SDS_P1;SDS_P2;PMS_P1;PMS_P2;Temp;Humidity;BMP_temperature;BMP_pressure;BME280_temperature;BME280_humidity;BME280_pressure;Samples;Min_cycle;Max_cycle;Signal;HPM_P1;HPM_P2
2022/04/22 00:01:17;;;;;;;10.27;7.15;;;9.30;57.80;;;;;;5053172;28;20032;-77
2022/04/22 00:03:42;;;;;;;10.52;7.07;;;9.20;57.80;;;;;;5051822;28;20085;-77
2022/04/22 00:06:08;;;;;;;11.27;8.07;;;9.20;57.90;;;;;;5053189;28;20029;-77
2022/04/22 00:08:34;;;;;;;8.02;6.45;;;9.10;58.50;;;;;;5052599;28;20471;-77
2022/04/22 00:13:44;;;;;;;9.02;6.63;;;9.00;59.00;;;;;;5052773;28;20035;-77
2022/04/22 00:16:10;;;;;;;8.50;6.25;;;9.00;58.90;;;;;;5052779;28;20124;-76
2022/04/22 00:18:36;;;;;;;11.27;6.28;;;9.10;58.90;;;;;;5053067;28;20029;-77
2022/04/22 00:21:02;;;;;;;12.23;7.25;;;9.00;58.70;;;;;;5051555;28;20363;-77
2022/04/22 00:23:28;;;;;;;10.98;6.40;;;9.00;59.00;;;;;;5052931;28;20056;-76
2022/04/22 00:25:58;;;;;;;8.50;6.43;;;9.00;58.90;;;;;;5052851;28;20032;-77
2022/04/22 00:28:23;;;;;;;10.90;6.10;;;9.00;58.90;;;;;;5052623;28;20033;-77
2022/04/22 00:30:50;;;;;;;6.85;5.75;;;8.90;59.10;;;;;;5052931;28;20566;-76
2022/04/22 00:33:15;;;;;;;8.20;6.15;;;8.90;59.30;;;;;;5051518;28;20025;-77
2022/04/22 00:35:41;;;;;;;9.65;5.88;;;8.90;59.30;;;;;;5052711;28;20021;-78
2022/04/22 00:38:07;;;;;;;7.75;6.35;;;8.90;59.20;;;;;;5052614;28;20032;-77
2022/04/22 00:40:33;;;;;;;8.35;6.50;;;8.80;59.20;;;;;;5053148;28;20032;-77
2022/04/22 00:43:12;;;;;;;9.05;6.03;;;8.60;60.00;;;;;;5052809;28;20036;-79
2022/04/22 00:45:37;;;;;;;12.10;6.78;;;8.60;60.40;;;;;;5050907;28;20474;-78
2022/04/22 00:48:03;;;;;;;9.98;6.95;;;8.60;60.40;;;;;;5051184;28;20033;-80
2022/04/22 00:50:29;;;;;;;13.52;7.47;;;8.60;61.20;;;;;;5052520;28;20036;-79
2022/04/22 00:52:54;;;;;;;11.45;7.15;;;8.40;61.10;;;;;;5052684;28;20029;-78
2022/04/22 00:55:20;;;;;;;12.05;9.02;;;8.30;61.90;;;;;;5052446;28;20482;-77
2022/04/22 00:57:46;;;;;;;15.38;8.07;;;8.30;62.10;;;;;;5052539;28;20031;-77
2022/04/22 01:00:12;;;;;;;10.38;8.25;;;8.30;62.70;;;;;;5052548;28;20458;-77
2022/04/22 01:02:37;;;;;;;9.40;7.72;;;8.20;62.80;;;;;;5052543;28;20061;-77
2022/04/22 01:10:31;;;;;;;10.80;7.80;;;8.10;63.20;;;;;;5056098;28;20060;-77
2022/04/22 01:12:57;;;;;;;11.82;7.07;;;8.00;62.40;;;;;;5056209;28;20483;-76
2022/04/22 01:15:22;;;;;;;10.38;7.35;;;8.00;62.50;;;;;;5055972;28;20028;-76
2022/04/22 01:17:48;;;;;;;15.38;8.95;;;8.00;62.90;;;;;;5056200;28;20112;-76
2022/04/22 01:20:16;;;;;;;15.77;9.40;;;7.90;63.60;;;;;;5056127;28;20025;-78
2022/04/22 01:22:41;;;;;;;14.05;8.80;;;7.80;64.40;;;;;;5055977;28;20429;-78
2022/04/22 01:25:07;;;;;;;16.05;8.20;;;7.80;64.60;;;;;;5055899;28;20025;-78
2022/04/22 01:27:33;;;;;;;10.85;7.85;;;7.80;64.70;;;;;;5055766;28;20044;-80
2022/04/22 01:30:06;;;;;;;14.02;8.38;;;7.90;64.90;;;;;;5055611;28;20020;-77
2022/04/22 01:32:31;;;;;;;10.07;7.10;;;7.70;66.00;;;;;;5055884;28;20147;-76
2022/04/22 01:34:57;;;;;;;14.77;8.52;;;7.60;65.60;;;;;;5055869;28;20055;-77
2022/04/22 01:37:23;;;;;;;11.85;8.38;;;7.40;66.90;;;;;;5055579;28;20060;-75
2022/04/22 01:39:49;;;;;;;15.68;9.27;;;7.10;68.90;;;;;;5055803;28;20357;-76
2022/04/22 01:42:14;;;;;;;11.25;8.68;;;7.00;70.00;;;;;;5055501;28;20021;-76
2022/04/22 01:44:40;;;;;;;12.50;7.93;;;7.00;70.20;;;;;;5055718;28;20028;-76
2022/04/22 01:47:06;;;;;;;12.93;8.90;;;7.10;70.50;;;;;;5055528;28;20065;-75
2022/04/22 01:49:31;;;;;;;9.63;7.43;;;7.10;70.30;;;;;;5055520;28;20379;-77
2022/04/22 01:51:57;;;;;;;8.88;6.90;;;7.30;69.90;;;;;;5055580;28;20242;-77
2022/04/22 01:54:23;;;;;;;10.32;7.05;;;7.30;68.80;;;;;;5055469;28;20021;-76
2022/04/22 01:56:49;;;;;;;9.63;6.70;;;7.40;67.50;;;;;;5055464;28;20025;-77
2022/04/22 01:59:14;;;;;;;11.13;7.53;;;7.50;66.50;;;;;;5055232;28;20096;-77
2022/04/22 02:01:40;;;;;;;9.98;6.35;;;7.50;65.60;;;;;;5055223;28;20025;-76
2022/04/22 02:04:05;;;;;;;12.20;8.13;;;7.50;65.00;;;;;;5055310;28;20017;-78
2022/04/22 02:06:32;;;;;;;8.18;6.68;;;7.40;64.80;;;;;;5055054;28;20078;-76
2022/04/22 02:08:57;;;;;;;9.88;6.95;;;7.40;65.00;;;;;;5055336;28;20017;-78
2022/04/22 02:11:23;;;;;;;10.38;6.70;;;7.40;65.20;;;;;;5055247;28;20386;-78
2022/04/22 02:13:49;;;;;;;11.77;8.30;;;7.30;65.40;;;;;;5055141;28;20570;-76
2022/04/22 02:16:14;;;;;;;10.43;7.82;;;7.30;65.60;;;;;;5053849;28;20041;-77
2022/04/22 02:18:42;;;;;;;11.95;8.18;;;7.30;65.70;;;;;;5054899;28;20052;-77
2022/04/22 02:21:09;;;;;;;9.90;6.90;;;7.20;65.90;;;;;;5055454;28;20482;-76
2022/04/22 02:23:35;;;;;;;10.45;7.82;;;7.30;66.00;;;;;;5054672;28;20021;-80
2022/04/22 02:26:01;;;;;;;8.93;7.03;;;7.20;65.60;;;;;;5054798;28;20063;-76
2022/04/22 02:28:33;;;;;;;9.82;7.30;;;7.20;65.00;;;;;;5054823;28;20463;-77
2022/04/22 02:31:09;;;;;;;11.55;7.43;;;7.20;64.80;;;;;;5054913;28;20092;-79
2022/04/22 02:33:36;;;;;;;7.63;6.75;;;7.20;65.00;;;;;;5055046;28;20029;-81
2022/04/22 02:36:03;;;;;;;10.40;7.28;;;7.10;65.10;;;;;;5057724;28;20017;-80
2022/04/22 02:38:30;;;;;;;11.13;7.30;;;7.00;65.10;;;;;;5055919;28;20025;-82
2022/04/22 02:46:24;;;;;;;10.13;7.57;;;6.60;66.70;;;;;;5054830;28;20080;-80
2022/04/22 02:48:51;;;;;;;10.98;7.68;;;6.60;67.00;;;;;;5054673;28;20044;-80
2022/04/22 02:51:17;;;;;;;11.55;8.18;;;6.60;67.10;;;;;;5054734;28;20023;-80
2022/04/22 02:53:43;;;;;;;9.13;7.10;;;6.60;67.00;;;;;;5054882;28;20029;-79
2022/04/22 02:56:10;;;;;;;10.23;7.07;;;6.70;67.10;;;;;;5054504;28;20436;-77
2022/04/22 02:58:36;;;;;;;11.00;7.45;;;6.70;66.90;;;;;;5054390;28;20506;-82
2022/04/22 03:01:02;;;;;;;11.82;6.85;;;6.70;66.70;;;;;;5054370;28;20364;-76
2022/04/22 03:03:28;;;;;;;8.27;6.40;;;6.60;66.40;;;;;;5053987;28;20029;-76
2022/04/22 03:05:54;;;;;;;10.95;7.53;;;6.60;66.40;;;;;;5054315;28;20438;-82
2022/04/22 03:08:20;;;;;;;9.48;6.70;;;6.60;66.60;;;;;;5054085;28;20037;-81
2022/04/22 03:10:48;;;;;;;8.82;6.82;;;6.60;66.50;;;;;;5054274;28;20017;-84
2022/04/22 03:13:15;;;;;;;9.27;6.97;;;6.50;66.60;;;;;;5054184;28;20029;-77
2022/04/22 03:15:41;;;;;;;11.60;7.75;;;6.50;66.70;;;;;;5053879;28;20056;-83
2022/04/22 03:18:07;;;;;;;12.20;7.50;;;6.30;67.30;;;;;;5054173;28;20455;-85
2022/04/22 03:20:33;;;;;;;9.70;7.50;;;6.20;67.60;;;;;;5054487;28;20033;-84
2022/04/22 03:22:58;;;;;;;10.10;7.28;;;6.20;67.80;;;;;;5054392;28;20067;-84
2022/04/22 03:25:24;;;;;;;11.82;7.18;;;6.20;67.80;;;;;;5053986;28;20518;-83
2022/04/22 03:27:51;;;;;;;12.77;6.80;;;6.10;67.90;;;;;;5053590;28;20044;-83
2022/04/22 03:30:17;;;;;;;10.55;7.25;;;6.10;67.60;;;;;;5052703;28;20017;-83
2022/04/22 03:32:43;;;;;;;10.43;7.10;;;6.10;67.50;;;;;;5053746;28;20108;-82
2022/04/22 03:35:09;;;;;;;9.18;7.72;;;6.20;67.50;;;;;;5053458;28;20519;-82
2022/04/22 03:37:34;;;;;;;15.73;8.68;;;6.10;67.30;;;;;;5053591;28;20021;-82
2022/04/22 03:40:00;;;;;;;12.50;8.40;;;6.10;67.40;;;;;;5053333;28;20025;-82
2022/04/22 03:42:27;;;;;;;13.30;10.07;;;6.10;67.30;;;;;;5053005;28;20427;-81
2022/04/22 03:44:53;;;;;;;14.15;9.48;;;6.00;67.30;;;;;;5053121;28;20017;-81
2022/04/22 03:47:19;;;;;;;15.27;9.77;;;5.90;67.50;;;;;;5052990;28;20033;-81
2022/04/22 03:49:45;;;;;;;18.02;9.35;;;5.80;67.70;;;;;;5052893;28;20036;-81
2022/04/22 03:52:10;;;;;;;14.93;10.15;;;5.80;67.90;;;;;;5052902;28;20021;-81
2022/04/22 03:54:36;;;;;;;16.00;10.20;;;5.70;68.20;;;;;;5053187;28;20031;-81
2022/04/22 03:59:47;;;;;;;13.88;7.90;;;5.70;68.40;;;;;;5053579;28;20028;-81
2022/04/22 04:02:12;;;;;;;10.45;7.32;;;5.70;68.50;;;;;;5053244;28;20025;-81
2022/04/22 04:04:38;;;;;;;10.60;7.22;;;5.70;68.50;;;;;;5053380;28;20033;-82
2022/04/22 04:07:04;;;;;;;9.20;6.88;;;5.80;69.20;;;;;;5052664;28;20442;-81
2022/04/22 04:17:42;;;;;;;10.40;7.53;;;5.60;68.50;;;;;;5052816;28;20048;-77
2022/04/22 04:23:15;;;;;;;13.20;7.30;;;5.60;68.70;;;;;;5044010;28;20039;-77
2022/04/22 04:25:41;;;;;;;12.15;8.48;;;5.60;68.80;;;;;;5052769;28;20032;-77
2022/04/22 04:28:10;;;;;;;16.20;8.35;;;5.60;68.70;;;;;;5051146;28;20458;-78
2022/04/22 04:30:40;;;;;;;12.48;7.18;;;5.60;68.60;;;;;;5052289;28;20029;-77
2022/04/22 04:33:07;;;;;;;10.70;7.28;;;5.60;68.30;;;;;;5052555;28;20387;-77
2022/04/22 04:35:34;;;;;;;10.48;7.22;;;5.60;68.20;;;;;;5052232;28;20032;-78
2022/04/22 04:38:00;;;;;;;19.70;9.25;;;5.60;68.00;;;;;;5052458;28;20028;-76
2022/04/22 04:40:26;;;;;;;15.32;8.10;;;5.60;67.70;;;;;;5053727;28;20387;-75
2022/04/22 04:42:54;;;;;;;13.60;8.43;;;5.60;67.60;;;;;;5056668;28;20023;-80
2022/04/22 04:45:20;;;;;;;18.67;9.52;;;5.60;67.60;;;;;;5056572;28;20447;-78
2022/04/22 04:47:46;;;;;;;17.02;10.27;;;5.60;67.50;;;;;;5056416;28;20079;-78
2022/04/22 04:50:13;;;;;;;19.30;10.30;;;5.70;67.50;;;;;;5055243;28;20025;-78
2022/04/22 04:52:39;;;;;;;19.48;11.30;;;5.70;67.50;;;;;;5056279;28;20024;-78
2022/04/22 04:55:09;;;;;;;16.45;11.07;;;5.70;67.70;;;;;;5056381;28;20013;-77
2022/04/22 04:57:35;;;;;;;14.27;9.98;;;5.80;67.90;;;;;;5056382;28;20029;-77
2022/04/22 05:00:05;;;;;;;16.63;9.73;;;5.80;67.80;;;;;;5056457;28;20017;-77
2022/04/22 05:02:31;;;;;;;12.43;8.93;;;5.80;67.60;;;;;;5056151;28;20046;-77
2022/04/22 05:04:57;;;;;;;14.05;8.85;;;5.90;67.60;;;;;;5056137;28;20021;-78
2022/04/22 05:07:22;;;;;;;11.43;8.45;;;5.90;67.60;;;;;;5055983;28;20043;-77
2022/04/22 05:09:48;;;;;;;12.05;8.40;;;6.00;67.50;;;;;;5056201;28;20040;-77
2022/04/22 05:12:13;;;;;;;15.48;7.85;;;6.00;67.30;;;;;;5056119;28;20037;-79
2022/04/22 05:14:39;;;;;;;14.85;8.98;;;6.00;67.20;;;;;;5054776;28;20045;-78
2022/04/22 05:17:05;;;;;;;15.43;10.10;;;6.10;67.10;;;;;;5055858;28;20567;-81
2022/04/22 05:19:30;;;;;;;12.80;9.77;;;6.00;66.80;;;;;;5056032;28;20029;-78
2022/04/22 05:21:56;;;;;;;16.58;9.00;;;6.00;66.90;;;;;;5056000;28;20479;-78
2022/04/22 05:24:22;;;;;;;13.20;8.40;;;5.90;67.20;;;;;;5054868;28;20471;-79
2022/04/22 05:26:48;;;;;;;15.23;9.65;;;5.90;67.90;;;;;;5055836;28;20360;-80
2022/04/22 05:34:42;;;;;;;19.65;12.13;;;5.90;68.20;;;;;;5056097;28;20075;-81
2022/04/22 05:37:08;;;;;;;19.88;12.52;;;5.90;68.30;;;;;;5055694;28;20029;-79
2022/04/22 05:39:33;;;;;;;20.50;12.50;;;6.00;68.40;;;;;;5055812;28;20029;-82
2022/04/22 05:42:02;;;;;;;16.85;10.45;;;6.10;68.60;;;;;;5055602;28;20074;-78
2022/04/22 05:44:28;;;;;;;17.17;10.98;;;6.20;68.50;;;;;;5055688;28;20018;-83
2022/04/22 05:46:54;;;;;;;14.20;10.10;;;6.40;68.20;;;;;;5055932;28;20118;-83
2022/04/22 05:49:20;;;;;;;14.13;9.68;;;6.60;68.00;;;;;;5056252;28;20029;-83
2022/04/22 05:51:45;;;;;;;16.20;10.88;;;6.70;67.60;;;;;;5056174;28;20021;-84
2022/04/22 05:54:11;;;;;;;16.23;10.20;;;6.80;67.20;;;;;;5055436;28;20029;-81
2022/04/22 05:56:36;;;;;;;17.30;9.88;;;6.90;67.10;;;;;;5055535;28;20104;-83
2022/04/22 05:59:03;;;;;;;13.27;9.75;;;7.00;67.00;;;;;;5055231;28;20036;-83
2022/04/22 06:01:29;;;;;;;18.65;12.32;;;7.20;66.80;;;;;;5055089;28;20017;-83
2022/04/22 06:03:54;;;;;;;17.83;12.10;;;7.20;66.70;;;;;;5053848;28;20036;-82
2022/04/22 06:06:20;;;;;;;16.67;11.13;;;7.30;66.50;;;;;;5055265;28;20079;-82
2022/04/22 06:11:29;;;;;;;18.08;11.82;;;7.60;66.00;;;;;;5055282;28;20094;-83
2022/04/22 06:13:55;;;;;;;17.52;11.50;;;7.70;65.80;;;;;;5054203;28;20025;-80
2022/04/22 06:16:21;;;;;;;19.30;12.73;;;7.80;66.00;;;;;;5054604;28;20045;-82
2022/04/22 06:18:47;;;;;;;15.48;11.20;;;7.80;66.80;;;;;;5054780;28;20035;-82
2022/04/22 06:21:13;;;;;;;18.15;13.07;;;7.80;67.60;;;;;;5054687;28;20068;-80
2022/04/22 06:23:38;;;;;;;19.98;11.80;;;7.80;67.70;;;;;;5054823;28;20079;-82
2022/04/22 06:26:04;;;;;;;17.20;12.43;;;7.70;68.50;;;;;;5054783;28;20047;-82
2022/04/22 06:28:30;;;;;;;18.70;12.55;;;7.70;69.00;;;;;;5054726;28;20032;-82
2022/04/22 06:30:56;;;;;;;18.38;11.82;;;7.80;68.80;;;;;;5055039;28;20049;-83
2022/04/22 06:33:21;;;;;;;25.15;13.27;;;7.70;69.50;;;;;;5053323;28;20051;-82
2022/04/22 06:35:47;;;;;;;16.45;11.18;;;7.70;69.70;;;;;;5054777;28;20098;-82
2022/04/22 06:38:16;;;;;;;29.80;12.70;;;7.80;70.10;;;;;;5052946;28;20368;-75
2022/04/22 06:46:12;;;;;;;18.40;11.88;;;9.00;75.80;;;;;;5054299;28;20059;-72
2022/04/22 06:48:38;;;;;;;17.73;10.85;;;9.40;72.20;;;;;;5054211;28;20483;-72
2022/04/22 06:51:07;;;;;;;17.83;11.88;;;9.60;68.10;;;;;;5053963;28;20032;-71
2022/04/22 06:53:34;;;;;;;15.63;11.65;;;10.00;68.30;;;;;;5053915;28;20033;-72
2022/04/22 06:56:02;;;;;;;20.10;12.20;;;10.40;67.30;;;;;;5053786;28;20021;-72
2022/04/22 06:58:30;;;;;;;17.42;12.70;;;10.70;66.20;;;;;;5053822;28;20076;-71
2022/04/22 07:00:55;;;;;;;18.88;12.45;;;10.90;64.20;;;;;;5054063;28;20519;-70
2022/04/22 07:03:21;;;;;;;24.75;13.88;;;11.00;62.00;;;;;;5053230;28;20037;-70
2022/04/22 07:05:48;;;;;;;20.27;13.98;;;11.00;62.40;;;;;;5053741;28;20453;-70
2022/04/22 07:08:14;;;;;;;16.70;12.63;;;11.00;62.90;;;;;;5053434;28;20029;-70
2022/04/22 07:10:41;;;;;;;19.55;13.85;;;11.10;62.40;;;;;;5053684;28;20053;-70
2022/04/22 07:13:07;;;;;;;18.42;13.20;;;11.30;62.10;;;;;;5053668;28;20021;-70
2022/04/22 07:15:33;;;;;;;16.23;12.52;;;11.40;61.40;;;;;;5053249;28;20049;-70
2022/04/22 07:17:59;;;;;;;19.58;13.90;;;11.60;60.70;;;;;;5053483;28;20067;-71
2022/04/22 07:20:25;;;;;;;18.83;13.20;;;11.70;60.50;;;;;;5053394;28;20418;-70
2022/04/22 07:22:53;;;;;;;17.52;13.52;;;11.90;59.50;;;;;;5053625;28;20029;-70
2022/04/22 07:25:20;;;;;;;19.23;14.13;;;11.90;59.00;;;;;;5053296;28;20502;-70
2022/04/22 07:27:46;;;;;;;16.73;13.23;;;12.00;58.90;;;;;;5053279;28;20029;-70
2022/04/22 07:30:14;;;;;;;21.73;14.82;;;11.40;60.90;;;;;;5053311;28;20029;-71
2022/04/22 07:32:42;;;;;;;21.52;15.55;;;11.50;61.50;;;;;;5053159;28;20029;-79
2022/04/22 07:35:12;;;;;;;26.10;17.75;;;11.50;60.30;;;;;;5051912;28;20033;-79
2022/04/22 07:37:47;;;;;;;23.60;16.33;;;11.40;60.50;;;;;;5051825;28;20048;-78
2022/04/22 07:40:14;;;;;;;;;;;11.20;61.40;;;;;;5052558;28;20434;-79
2022/04/22 07:46:46;;;;;;;23.70;14.55;;;10.90;62.50;;;;;;5052734;28;19905;-78
2022/04/22 07:48:12;;;;;;;22.30;15.98;;;11.00;63.70;;;;;;5053116;28;20429;-79
2022/04/22 07:50:38;;;;;;;23.48;17.17;;;11.10;63.80;;;;;;5053130;28;20488;-78
2022/04/22 07:53:04;;;;;;;26.88;18.20;;;11.00;63.60;;;;;;5051813;28;20064;-78
2022/04/22 07:55:29;;;;;;;23.45;16.75;;;11.00;63.70;;;;;;5051839;28;20332;-78
2022/04/22 07:57:57;;;;;;;24.55;16.85;;;10.90;64.90;;;;;;5034700;28;20037;-78
2022/04/22 08:00:22;;;;;;;26.35;17.70;;;10.70;66.60;;;;;;5034922;28;20029;-78
2022/04/22 08:02:49;;;;;;;22.23;16.23;;;10.80;66.30;;;;;;5035112;28;20590;-78
2022/04/22 08:05:16;;;;;;;22.88;15.95;;;11.00;65.90;;;;;;5051460;28;20025;-80
2022/04/22 08:07:43;;;;;;;22.23;16.35;;;11.10;64.30;;;;;;5051454;28;20044;-77
2022/04/22 08:10:09;;;;;;;25.77;17.88;;;11.00;64.70;;;;;;5052835;28;20025;-79
2022/04/22 08:12:35;;;;;;;24.80;17.92;;;11.10;65.00;;;;;;5035189;28;20449;-79
2022/04/22 08:15:03;;;;;;;25.58;17.95;;;11.10;64.50;;;;;;5050692;28;20459;-77
2022/04/22 08:17:36;;;;;;;23.83;17.02;;;11.10;64.50;;;;;;5051238;28;20068;-76
2022/04/22 08:20:06;;;;;;;23.52;17.73;;;11.20;64.10;;;;;;5051480;28;20443;-78
2022/04/22 08:22:33;;;;;;;24.38;17.30;;;11.40;63.10;;;;;;5046391;28;20474;-77
2022/04/22 08:24:59;;;;;;;22.88;17.38;;;11.50;62.90;;;;;;5051548;28;20036;-77
2022/04/22 08:27:26;;;;;;;24.58;16.90;;;11.60;61.80;;;;;;5052876;28;20020;-78
2022/04/22 08:29:52;;;;;;;24.50;17.00;;;11.70;61.40;;;;;;5051498;28;20045;-77
2022/04/22 08:32:18;;;;;;;28.27;16.85;;;11.70;61.80;;;;;;5034472;28;20032;-85
2022/04/22 08:34:44;;;;;;;26.73;17.77;;;11.70;61.70;;;;;;5051460;28;20528;-77
2022/04/22 08:37:11;;;;;;;25.63;16.48;;;11.70;61.50;;;;;;5051161;28;20036;-80
2022/04/22 08:39:37;;;;;;;22.60;16.63;;;11.70;61.40;;;;;;5052154;28;21122;-77
2022/04/22 08:42:04;;;;;;;24.23;17.38;;;11.90;61.10;;;;;;5051251;28;20131;-78
2022/04/22 08:44:31;;;;;;;22.52;17.25;;;11.90;60.80;;;;;;5051115;28;20060;-78
2022/04/22 08:52:27;;;;;;;41.00;16.70;;;12.30;59.10;;;;;;5052262;28;20040;-78
2022/04/22 08:54:54;;;;;;;20.35;15.35;;;12.70;59.40;;;;;;5050762;28;20053;-78
2022/04/22 08:57:22;;;;;;;23.02;16.17;;;13.00;57.60;;;;;;5050883;28;20028;-78
2022/04/22 08:59:49;;;;;;;25.40;17.67;;;12.90;58.10;;;;;;5051295;28;20098;-78
2022/04/22 09:02:20;;;;;;;25.33;16.92;;;12.90;57.50;;;;;;5050623;28;20021;-77
2022/04/22 09:04:47;;;;;;;25.65;15.70;;;12.90;58.10;;;;;;5050823;28;20040;-77
2022/04/22 09:07:16;;;;;;;23.65;17.20;;;12.90;57.60;;;;;;5051024;28;20123;-78
2022/04/22 09:09:44;;;;;;;21.95;16.65;;;12.90;57.20;;;;;;5051379;28;20108;-77
2022/04/22 09:12:13;;;;;;;21.05;16.35;;;12.90;57.30;;;;;;5051255;28;20072;-82
2022/04/22 09:14:46;;;;;;;18.75;15.15;;;13.00;57.50;;;;;;5051178;28;20395;-77
2022/04/22 09:17:21;;;;;;;22.95;17.60;;;13.00;57.30;;;;;;5051674;28;20048;-78
2022/04/22 09:19:46;;;;;;;21.20;16.38;;;13.20;57.00;;;;;;5050585;28;20372;-78
2022/04/22 09:22:19;;;;;;;19.60;15.43;;;13.30;57.10;;;;;;5050615;28;20112;-79
2022/04/22 09:24:49;;;;;;;19.40;15.38;;;13.50;56.80;;;;;;5051464;28;20106;-79
2022/04/22 09:27:17;;;;;;;22.25;15.75;;;13.80;55.20;;;;;;5037917;28;20095;-78
2022/04/22 09:29:54;;;;;;;17.65;14.13;;;14.00;54.30;;;;;;5038020;28;20021;-77
2022/04/22 09:32:28;;;;;;;22.00;16.23;;;14.30;53.50;;;;;;5054757;28;20036;-78
2022/04/22 09:35:10;;;;;;;24.50;15.50;;;14.40;52.20;;;;;;5054187;28;20071;-79
2022/04/22 09:43:46;;;;;;;24.80;16.42;;;14.40;52.20;;;;;;5055757;28;20124;-79
2022/04/22 09:46:33;;;;;;;20.02;15.65;;;14.80;51.90;;;;;;5053536;28;20033;-78
2022/04/22 09:49:01;;;;;;;22.30;16.92;;;15.10;50.80;;;;;;5055520;28;20104;-78
2022/04/22 09:51:33;;;;;;;20.73;14.95;;;15.00;49.20;;;;;;5053728;28;20037;-78
2022/04/22 09:54:09;;;;;;;20.73;15.25;;;15.00;49.70;;;;;;5053824;28;20032;-78
2022/04/22 09:56:37;;;;;;;18.35;15.48;;;14.90;50.80;;;;;;5055363;28;20497;-83
2022/04/22 09:59:32;;;;;;;21.02;16.50;;;15.20;49.90;;;;;;5055095;28;20478;-78
2022/04/22 10:02:00;;;;;;;20.17;14.10;;;15.50;49.00;;;;;;5054811;28;20029;-79
2022/04/22 10:04:27;;;;;;;17.77;14.60;;;15.80;48.40;;;;;;5052711;28;20123;-77
2022/04/22 10:06:56;;;;;;;25.33;17.30;;;16.10;46.90;;;;;;5053399;28;20067;-78
2022/04/22 10:09:25;;;;;;;19.60;14.90;;;16.40;46.00;;;;;;5054873;28;20051;-78
2022/04/22 10:11:52;;;;;;;18.30;13.95;;;16.70;44.90;;;;;;5039693;28;20037;-78
2022/04/22 10:14:38;;;;;;;17.80;15.00;;;16.90;43.70;;;;;;5055340;28;20032;-78
2022/04/22 10:17:05;;;;;;;18.85;15.05;;;16.80;43.20;;;;;;5054601;28;20053;-79
2022/04/22 10:19:33;;;;;;;22.45;15.98;;;16.60;43.90;;;;;;5055977;28;20041;-78
2022/04/22 10:22:00;;;;;;;22.42;15.82;;;16.80;44.10;;;;;;5054617;28;20025;-77
2022/04/22 10:24:26;;;;;;;18.83;15.02;;;16.80;44.10;;;;;;5052626;28;20506;-79
2022/04/22 10:26:52;;;;;;;17.95;15.45;;;16.60;44.20;;;;;;5052988;28;20048;-79
2022/04/22 10:29:19;;;;;;;21.38;16.63;;;16.70;43.70;;;;;;5053042;28;20479;-78
2022/04/22 10:31:45;;;;;;;19.80;15.75;;;16.60;44.30;;;;;;5054204;28;20035;-79
2022/04/22 10:34:11;;;;;;;20.92;16.08;;;16.60;44.00;;;;;;5052454;28;20033;-79
2022/04/22 10:36:38;;;;;;;20.65;16.13;;;16.70;44.00;;;;;;5052439;28;20025;-78
2022/04/22 10:39:04;;;;;;;20.48;14.00;;;16.30;45.50;;;;;;5052707;28;20029;-78
2022/04/22 10:41:44;;;;;;;16.13;14.20;;;16.60;45.30;;;;;;5053334;28;20035;-78
2022/04/22 10:47:13;;;;;;;19.58;16.85;;;17.30;44.50;;;;;;5053685;28;20391;-77
2022/04/22 10:49:42;;;;;;;18.33;14.85;;;17.60;42.70;;;;;;5052827;28;20624;-77
2022/04/22 10:52:13;;;;;;;16.67;14.13;;;17.60;42.00;;;;;;5054295;28;20057;-78
2022/04/22 10:54:51;;;;;;;20.60;14.18;;;17.80;42.60;;;;;;5054270;28;20111;-77
2022/04/22 10:57:23;;;;;;;21.60;17.30;;;18.00;41.80;;;;;;5052565;28;20024;-77
2022/04/22 11:00:13;;;;;;;22.70;16.00;;;17.80;41.70;;;;;;5052935;28;20124;-77
2022/04/22 11:02:41;;;;;;;22.35;14.55;;;18.10;41.50;;;;;;5050109;28;20036;-78
2022/04/22 11:08:01;;;;;;;21.35;16.23;;;18.30;42.00;;;;;;5054233;28;20037;-78
2022/04/22 11:10:27;;;;;;;18.88;15.23;;;18.30;40.30;;;;;;5053599;28;20451;-77
2022/04/22 11:12:57;;;;;;;18.95;15.68;;;18.60;40.10;;;;;;5052554;28;20025;-77
2022/04/22 11:15:41;;;;;;;22.13;15.30;;;19.00;39.40;;;;;;5052350;28;20071;-77
2022/04/22 11:18:08;;;;;;;15.65;13.63;;;19.30;39.30;;;;;;5053562;28;20498;-76
2022/04/22 11:20:38;;;;;;;22.38;17.58;;;19.60;38.90;;;;;;5053843;28;20088;-75
2022/04/22 11:23:09;;;;;;;20.75;16.25;;;19.50;37.40;;;;;;5052420;28;20025;-75
2022/04/22 11:25:34;;;;;;;20.88;17.58;;;19.50;37.80;;;;;;5053753;28;20118;-75
2022/04/22 11:28:02;;;;;;;19.83;17.25;;;19.60;37.40;;;;;;5053539;28;20487;-75
2022/04/22 11:30:29;;;;;;;20.75;17.20;;;18.80;39.60;;;;;;5052574;28;20043;-75
2022/04/22 11:33:16;;;;;;;18.65;15.80;;;19.00;39.90;;;;;;5053014;28;20033;-76
2022/04/22 11:35:41;;;;;;;17.65;13.35;;;19.30;39.10;;;;;;5051902;28;20024;-76
2022/04/22 11:38:07;;;;;;;18.00;14.60;;;19.40;38.80;;;;;;5052967;28;20505;-78
2022/04/22 11:40:37;;;;;;;21.50;18.40;;;19.60;37.50;;;;;;5051704;28;20078;-74
2022/04/22 11:43:07;;;;;;;21.63;17.05;;;19.40;38.90;;;;;;5051956;28;20036;-78
2022/04/22 11:45:35;;;;;;;20.60;16.65;;;18.80;39.00;;;;;;5053439;28;20056;-79
2022/04/22 11:48:13;;;;;;;19.85;16.13;;;18.80;39.30;;;;;;5052746;28;20528;-78
2022/04/22 11:50:42;;;;;;;20.95;16.85;;;19.10;39.40;;;;;;5052097;28;20035;-78
2022/04/22 11:53:34;;;;;;;25.15;17.92;;;18.90;38.80;;;;;;5053329;28;20029;-77
2022/04/22 11:56:04;;;;;;;20.88;15.85;;;18.70;39.40;;;;;;5056548;28;20066;-76
2022/04/22 11:58:32;;;;;;;17.80;14.60;;;18.90;39.30;;;;;;5051904;28;20032;-75
2022/04/22 12:06:27;;;;;;;16.90;14.80;;;19.70;38.00;;;;;;5052979;28;20450;-77
2022/04/22 12:08:57;;;;;;;19.77;14.40;;;20.10;37.90;;;;;;5052713;28;20100;-78
2022/04/22 12:11:24;;;;;;;18.00;14.60;;;20.30;37.40;;;;;;5051562;28;20029;-77
2022/04/22 12:13:50;;;;;;;20.63;16.98;;;20.40;36.20;;;;;;5051376;28;20059;-77
2022/04/22 12:16:27;;;;;;;22.13;16.95;;;19.70;36.60;;;;;;5034466;28;20474;-78
2022/04/22 12:18:55;;;;;;;21.17;16.17;;;19.30;37.90;;;;;;5051546;28;20067;-74
2022/04/22 12:21:22;;;;;;;20.13;15.77;;;19.00;39.10;;;;;;5050998;28;20029;-75
2022/04/22 12:23:51;;;;;;;19.95;15.75;;;19.20;39.30;;;;;;5052792;28;20035;-76
2022/04/22 12:26:22;;;;;;;14.25;12.48;;;19.60;38.20;;;;;;5050998;28;20029;-75
2022/04/22 12:29:02;;;;;;;21.13;15.35;;;20.00;37.60;;;;;;5051025;28;20497;-75
2022/04/22 12:31:30;;;;;;;15.82;14.13;;;20.50;36.10;;;;;;5051138;28;20216;-75
2022/04/22 12:34:07;;;;;;;16.30;13.35;;;20.70;36.40;;;;;;5052457;28;20103;-75
2022/04/22 12:36:53;;;;;;;12.15;10.43;;;21.20;35.70;;;;;;5051072;28;20025;-75
2022/04/22 12:39:41;;;;;;;14.50;12.40;;;21.80;35.20;;;;;;5052170;28;20036;-75
2022/04/22 12:42:20;;;;;;;16.15;12.02;;;22.40;33.10;;;;;;5052379;28;20032;-76
2022/04/22 12:53:37;;;;;;;12.98;10.40;;;22.30;32.20;;;;;;5052658;28;20078;-75
2022/04/22 12:56:04;;;;;;;12.20;11.00;;;22.60;31.80;;;;;;5034740;28;20125;-75
2022/04/22 12:58:32;;;;;;;14.60;12.73;;;22.30;32.10;;;;;;5052118;28;20036;-76
2022/04/22 13:00:58;;;;;;;18.83;12.88;;;22.60;31.50;;;;;;5052700;28;20021;-75
2022/04/22 13:03:36;;;;;;;25.45;13.27;;;22.90;31.20;;;;;;5054898;28;20459;-76
2022/04/22 13:06:03;;;;;;;18.08;13.15;;;22.40;31.80;;;;;;5055057;28;20382;-76
2022/04/22 13:08:29;;;;;;;18.60;12.25;;;22.20;32.00;;;;;;5054598;28;20021;-76
2022/04/22 13:10:58;;;;;;;13.57;10.68;;;22.20;32.20;;;;;;5054897;28;20056;-76
2022/04/22 13:13:23;;;;;;;16.45;12.02;;;22.50;32.00;;;;;;5055976;28;20024;-76
2022/04/22 13:15:49;;;;;;;15.88;11.68;;;22.80;31.00;;;;;;5055865;28;20052;-76
2022/04/22 13:18:14;;;;;;;14.57;11.05;;;23.10;31.00;;;;;;5054551;28;20437;-76
2022/04/22 13:20:40;;;;;;;14.75;11.05;;;23.50;30.50;;;;;;5054351;28;20032;-75
2022/04/22 13:23:06;;;;;;;17.15;13.02;;;23.60;29.00;;;;;;5054682;28;20043;-74
2022/04/22 13:25:32;;;;;;;15.50;13.15;;;23.60;28.70;;;;;;5054030;28;20083;-75
2022/04/22 13:27:57;;;;;;;16.02;11.88;;;23.00;29.70;;;;;;5055587;28;20033;-76
2022/04/22 13:30:27;;;;;;;20.63;12.80;;;22.90;30.40;;;;;;5055437;28;20437;-76
2022/04/22 13:32:53;;;;;;;15.85;11.50;;;22.40;31.00;;;;;;5055431;28;20112;-76
2022/04/22 13:35:20;;;;;;;14.90;11.30;;;22.10;32.00;;;;;;5055681;28;20104;-76
2022/04/22 13:37:47;;;;;;;13.20;11.43;;;21.90;32.70;;;;;;5037579;28;20482;-77
2022/04/22 13:40:15;;;;;;;15.50;11.75;;;22.10;32.80;;;;;;5037743;28;20128;-77
2022/04/22 13:42:40;;;;;;;13.73;11.65;;;21.90;32.60;;;;;;5021475;28;20029;-77
2022/04/22 13:53:19;;;;;;;13.85;12.32;;;20.90;35.00;;;;;;5054415;28;20040;-77
2022/04/22 13:55:44;;;;;;;16.10;11.55;;;20.40;35.20;;;;;;5055121;28;20029;-76
2022/04/22 13:58:11;;;;;;;13.80;10.65;;;20.40;35.40;;;;;;5053962;28;20049;-76
2022/04/22 14:00:36;;;;;;;15.63;11.48;;;20.70;35.20;;;;;;5054046;28;20029;-76
2022/04/22 14:03:04;;;;;;;12.65;9.20;;;21.00;34.50;;;;;;5053709;28;20048;-77
2022/04/22 14:05:31;;;;;;;11.02;9.20;;;21.60;34.30;;;;;;5055039;28;20049;-77